»·PEaware :: N733DN KTOA-KVNY

N733DN :: KTOA-KVNY

FLIGHT INFORMATION

Flight Status: Arrived
Operator: Privately registered:
United States
More flights under this callsign
Pilot: Max S. (25266)
Aircraft: CESSNA 172 SKYHAWK
(C172)
More flights by this aircraft type
Origin: KTOA Zamperini
United States
Destination: KVNY Van Nuys
United States
More flights between these airports :: More routes between these airports
Route: LAX170 LIMBO V64 SMO125 SMO SMO317 CANOG
File this flight plan on PilotEdge
Remarks: TEC route SCTP2, SKYHIGH scenario 1
Altitude:
(Current/Filed)
4,000ft
Speed:
(Current/Filed)
110kts
Departed: 23-Dec-19 03:41 PM
Arrived: 23-Dec-19 04:57 PM
Distance/Time
Traveled:
26nm/1:16
Distance/Time
To Go:
Arrived

Flight Plot

Page will automatically refresh every two minutes.

Flight plan parsing failed; only flown route is shown


Map Options




Map Legend


Flown Route
Filed Route
Departure Airport
Arrival Airport
Navaid (VOR, NDB)
Fix

Horizontal Profiles

Position Reports

Time Latitude Longitude Heading Altitude Ground
Speed
23-Dec-19 15:00 33.803347 -118.344052 39 102ft 0kts
23-Dec-19 15:01 33.803347 -118.344052 39 102ft 0kts
23-Dec-19 15:02 33.803347 -118.344052 39 102ft 0kts
23-Dec-19 15:03 33.803347 -118.344052 39 102ft 0kts
23-Dec-19 15:04 33.803347 -118.344052 39 102ft 0kts
23-Dec-19 15:05 33.803347 -118.344051 39 102ft 0kts
23-Dec-19 15:06 33.803347 -118.344051 39 102ft 0kts
23-Dec-19 15:07 33.803347 -118.344051 39 102ft 0kts
23-Dec-19 15:08 33.803347 -118.344051 39 102ft 0kts
23-Dec-19 15:09 33.803347 -118.344051 39 102ft 0kts
23-Dec-19 15:10 33.803347 -118.344051 39 102ft 0kts
23-Dec-19 15:11 33.803347 -118.344051 39 102ft 0kts
23-Dec-19 15:12 33.803347 -118.344051 39 102ft 0kts
23-Dec-19 15:13 33.803347 -118.344051 39 102ft 0kts
23-Dec-19 15:14 33.803347 -118.344051 39 102ft 0kts
23-Dec-19 15:15 33.803347 -118.344051 39 102ft 0kts
23-Dec-19 15:16 33.803347 -118.344051 39 102ft 0kts
23-Dec-19 15:17 33.803347 -118.344051 39 102ft 0kts
23-Dec-19 15:18 33.803347 -118.344051 39 102ft 0kts
23-Dec-19 15:19 33.803347 -118.344051 39 102ft 0kts
23-Dec-19 15:21 33.803347 -118.344051 39 102ft 0kts
23-Dec-19 15:22 33.803347 -118.344051 39 102ft 0kts
23-Dec-19 15:23 33.803347 -118.344051 39 102ft 0kts
23-Dec-19 15:24 33.803347 -118.344051 39 102ft 0kts
23-Dec-19 15:25 33.803347 -118.344051 39 102ft 0kts
23-Dec-19 15:26 33.803347 -118.344051 39 102ft 0kts
23-Dec-19 15:27 33.803347 -118.344051 39 102ft 0kts
23-Dec-19 15:28 33.803347 -118.344051 39 102ft 0kts
23-Dec-19 15:29 33.803347 -118.344051 39 102ft 0kts
23-Dec-19 15:30 33.803347 -118.344051 39 102ft 0kts
23-Dec-19 15:31 33.803347 -118.344051 39 102ft 0kts
23-Dec-19 15:32 33.803347 -118.344051 39 102ft 0kts
23-Dec-19 15:33 33.803347 -118.344052 39 102ft 0kts
23-Dec-19 15:34 33.803347 -118.344052 39 102ft 0kts
23-Dec-19 15:35 33.803356 -118.344042 49 102ft 0kts
23-Dec-19 15:36 33.802527 -118.341312 127 101ft 18kts
23-Dec-19 15:37 33.798799 -118.335678 128 105ft 16kts
23-Dec-19 15:37 33.799055 -118.333326 38 101ft 11kts
23-Dec-19 15:39 33.799089 -118.333294 39 101ft 0kts
23-Dec-19 15:40 33.799357 -118.333067 30 100ft 8kts
23-Dec-19 15:40 33.806897 -118.343460 310 328ft 79kts
23-Dec-19 15:41 33.821031 -118.363319 310 1134ft 77kts
23-Dec-19 15:43 33.836968 -118.386940 310 1989ft 78kts
23-Dec-19 15:43 33.848385 -118.403696 311 2567ft 77kts
23-Dec-19 15:44 33.861990 -118.423858 308 3237ft 78kts
23-Dec-19 15:46 33.860559 -118.445861 182 3949ft 89kts
23-Dec-19 15:46 33.835589 -118.445207 182 4076ft 120kts
23-Dec-19 15:47 33.801417 -118.447761 186 4067ft 122kts
23-Dec-19 15:48 33.768144 -118.445588 136 4007ft 123kts
23-Dec-19 15:49 33.764445 -118.405934 87 3963ft 121kts
23-Dec-19 15:50 33.765507 -118.365260 86 3935ft 121kts
23-Dec-19 15:51 33.767877 -118.324746 83 3966ft 121kts
23-Dec-19 15:52 33.770195 -118.284283 85 4006ft 121kts
23-Dec-19 15:53 33.774368 -118.244098 57 4023ft 120kts
23-Dec-19 15:54 33.799890 -118.252679 314 4018ft 113kts
23-Dec-19 15:55 33.823336 -118.278386 319 4058ft 113kts
23-Dec-19 15:56 33.848658 -118.301397 323 4046ft 114kts
23-Dec-19 15:57 33.873753 -118.324602 321 4032ft 114kts
23-Dec-19 15:58 33.898724 -118.348177 321 4025ft 113kts
23-Dec-19 15:59 33.923320 -118.371896 322 4018ft 113kts
23-Dec-19 16:00 33.947443 -118.396048 322 4017ft 112kts
23-Dec-19 16:01 33.972659 -118.419963 324 3973ft 124kts
23-Dec-19 16:02 33.999587 -118.446953 323 4004ft 126kts
23-Dec-19 16:03 34.029628 -118.468971 335 4025ft 126kts
23-Dec-19 16:04 34.061238 -118.488294 334 4014ft 127kts
23-Dec-19 16:05 34.092738 -118.507996 333 4016ft 128kts
23-Dec-19 16:06 34.123796 -118.528922 332 4087ft 124kts
23-Dec-19 16:07 34.153389 -118.548692 331 4634ft 118kts
23-Dec-19 16:08 34.182961 -118.568121 333 4925ft 129kts
23-Dec-19 16:09 34.214722 -118.587611 344 4923ft 127kts
23-Dec-19 16:10 34.249277 -118.594157 354 4933ft 126kts
23-Dec-19 16:11 34.283862 -118.599450 353 4958ft 126kts
23-Dec-19 16:12 34.318515 -118.605849 352 4984ft 125kts
23-Dec-19 16:13 34.352999 -118.611707 353 5012ft 125kts
23-Dec-19 16:14 34.387800 -118.616454 354 5020ft 126kts
23-Dec-19 16:15 34.422411 -118.621373 353 5017ft 125kts
23-Dec-19 16:16 34.456841 -118.625279 353 5029ft 123kts
23-Dec-19 16:17 34.487193 -118.616441 77 5037ft 119kts
23-Dec-19 16:18 34.485221 -118.578650 95 5050ft 111kts
23-Dec-19 16:19 34.480322 -118.541946 127 4986ft 113kts
23-Dec-19 16:20 34.454075 -118.520991 155 4950ft 114kts
23-Dec-19 16:21 34.422766 -118.514741 168 4926ft 113kts
23-Dec-19 16:22 34.391670 -118.510320 172 4493ft 113kts
23-Dec-19 16:23 34.360613 -118.506672 171 3973ft 108kts
23-Dec-19 16:24 34.330931 -118.503630 172 3537ft 106kts
23-Dec-19 16:25 34.301794 -118.499999 170 3157ft 104kts
23-Dec-19 16:26 34.272860 -118.497016 173 2606ft 104kts
23-Dec-19 16:27 34.244267 -118.494250 171 1800ft 104kts
23-Dec-19 16:28 34.215062 -118.491396 172 1429ft 108kts
23-Dec-19 16:29 34.185723 -118.489651 174 1407ft 107kts
23-Dec-19 16:30 34.159051 -118.482775 160 1938ft 94kts
23-Dec-19 16:31 34.135812 -118.472622 157 2679ft 88kts
23-Dec-19 16:32 34.113259 -118.462175 154 3357ft 87kts
23-Dec-19 16:33 34.089173 -118.458890 181 4016ft 90kts
23-Dec-19 16:34 34.063647 -118.459639 176 4549ft 105kts
23-Dec-19 16:35 34.032549 -118.459617 174 4647ft 113kts
23-Dec-19 16:36 34.012727 -118.480664 280 4600ft 128kts
23-Dec-19 16:37 34.021176 -118.521169 282 4680ft 126kts
23-Dec-19 16:38 34.027490 -118.562312 279 4685ft 124kts
23-Dec-19 16:39 34.033626 -118.603475 281 4660ft 124kts
23-Dec-19 16:40 34.040297 -118.644409 287 4627ft 124kts
23-Dec-19 16:41 34.067232 -118.664544 345 4386ft 118kts
23-Dec-19 16:42 34.097755 -118.676600 341 4074ft 113kts
23-Dec-19 16:43 34.126803 -118.683101 345 3980ft 101kts
23-Dec-19 16:44 34.154696 -118.689654 344 4047ft 103kts
23-Dec-19 16:45 34.183073 -118.695108 17 4027ft 109kts
23-Dec-19 16:46 34.197942 -118.663928 70 3921ft 109kts
23-Dec-19 16:47 34.198373 -118.630465 94 3698ft 98kts
23-Dec-19 16:48 34.198924 -118.597871 90 3570ft 95kts
23-Dec-19 16:49 34.199689 -118.565769 90 2962ft 95kts
23-Dec-19 16:50 34.199849 -118.534120 93 2289ft 93kts
23-Dec-19 16:51 34.198990 -118.502953 92 1762ft 90kts
23-Dec-19 16:52 34.203981 -118.474628 21 1719ft 99kts
23-Dec-19 16:53 34.231836 -118.474812 7 1603ft 92kts
23-Dec-19 16:54 34.233412 -118.490280 186 1115ft 71kts
23-Dec-19 16:55 34.215880 -118.489714 172 807ft 54kts
23-Dec-19 16:56 34.210286 -118.488690 93 806ft 0kts

Navigation Log

Ident Type
Flight plan parsing failed, navigation log unavailable